Главная страница
METAR-TAF:

METAR-TAF

Аэропорты :

Уилмингтон, Делавэр, США

широта: 39-40-22N, долгота: 075-36-03W, высота над уровнем моря: 24 м

Текущие метеонаблюдения

Эта сводка был подготовлена 21 минут назад, в 23:51 UTC
Температура 22°C
Влажность 57%
Давление 1017 hPa
Видимость: 16.1 км
ясное небо

METAR: KILG 232351Z 10SM CLR 22/13 A3002 RMK AO2 SLP164 T02220133 10272 20222 53012 $

Время: 20:12 (00:12 UTC)

Прогноз

Эта сводка был подготовлена 52 минут назад, в 23:20 UTC
Прогноз действительный с 24-го 00 UTC до 24-го 24 UTC
Ветер 8 Узел от северно-северо-западный
Видимость: 10 км
ясное небо
С 24-го 1500 UTC
Ветер 7 Узел от северный
Видимость: 10 км
ясное небо
С 24-го 2000 UTC
Ветер 6 Узел от западный
Видимость: 10 км
ясное небо

TAF: KILG 232320Z 2400/2424 33008KT P6SM SKC FM241500 36007KT P6SM SKC FM242000 28006KT P6SM SKC

Метеонаблюдения и прогнозы для более 4000 аэропортов (сводки METAR и TAF).

Имеющиеся станции представлены на карте желтыми и красными точками.

Чтобы увидеть название станции, наведите на нее мышь.

Затем щелкните, чтобы увидеть метеонаблюдения и метеопрогнозы.

Управление картой: чтобы увеличить масштаб, щелкните зеленые кнопки с черным крестиком; чтобы уменьшить масштаб, щелкните зеленую кнопку с тире; для просмотра соседних карт щелкайте зеленые стрелки.


METAR-TAF: